createdAt,value
2022-08-24T00:02:28.935Z,24.34
2022-08-24T00:05:01.886Z,24.35
2022-08-24T00:07:35.116Z,24.34
2022-08-24T00:10:10.073Z,24.32
2022-08-24T00:12:43.457Z,24.32
2022-08-24T00:15:16.594Z,24.32
2022-08-24T00:17:48.807Z,24.27
2022-08-24T00:20:21.003Z,24.21
2022-08-24T00:22:53.460Z,24.17
2022-08-24T00:25:26.040Z,24.15
2022-08-24T00:27:58.235Z,24.10
2022-08-24T00:30:31.159Z,24.05
2022-08-24T00:33:04.005Z,24.03
2022-08-24T00:35:36.710Z,23.98
2022-08-24T00:38:10.039Z,24.01
2022-08-24T00:40:45.242Z,23.99
2022-08-24T00:43:21.085Z,24.02
2022-08-24T00:45:57.304Z,24.06
2022-08-24T00:48:32.979Z,24.06
2022-08-24T00:51:07.931Z,24.02
2022-08-24T00:53:44.308Z,24.02
2022-08-24T00:56:20.066Z,23.98
2022-08-24T00:58:57.054Z,23.96
2022-08-24T01:01:31.899Z,23.89
2022-08-24T01:04:04.899Z,23.77
2022-08-24T01:06:36.750Z,23.88
2022-08-24T01:09:08.862Z,23.61
2022-08-24T01:11:42.823Z,23.52
2022-08-24T01:14:14.851Z,23.45
2022-08-24T01:17:04.857Z,23.37
2022-08-24T01:19:43.353Z,23.30
2022-08-24T01:22:24.806Z,23.23
2022-08-24T01:24:57.790Z,23.19
2022-08-24T01:27:30.473Z,23.14
2022-08-24T01:30:04.744Z,23.10
2022-08-24T01:32:36.892Z,23.07
2022-08-24T01:35:10.323Z,23.01
2022-08-24T01:37:43.645Z,22.97
2022-08-24T01:40:16.199Z,22.95
2022-08-24T01:42:53.467Z,22.91
2022-08-24T01:45:26.589Z,22.88
2022-08-24T01:47:59.750Z,22.86
2022-08-24T01:50:32.259Z,22.79
2022-08-24T01:53:07.156Z,22.73
2022-08-24T01:55:39.608Z,22.70
2022-08-24T01:58:12.562Z,22.69
2022-08-24T02:00:47.040Z,22.66
2022-08-24T02:03:19.239Z,22.67
2022-08-24T02:05:52.444Z,22.66
2022-08-24T02:08:25.642Z,22.65
2022-08-24T02:10:57.891Z,22.61
2022-08-24T02:13:31.203Z,22.63
2022-08-24T02:16:03.688Z,22.63
2022-08-24T02:18:39.896Z,22.67
2022-08-24T02:21:13.654Z,22.73
2022-08-24T02:23:45.837Z,22.75
2022-08-24T02:26:18.296Z,22.74
2022-08-24T02:28:50.488Z,22.75
2022-08-24T02:31:22.746Z,22.76
2022-08-24T02:33:55.592Z,22.76
2022-08-24T02:36:28.103Z,22.79
2022-08-24T02:39:03.596Z,22.82
2022-08-24T02:41:38.090Z,22.83
2022-08-24T02:44:10.662Z,22.87
2022-08-24T02:46:44.061Z,22.94
2022-08-24T02:49:17.006Z,22.96
2022-08-24T02:54:24.441Z,23.04
2022-08-24T02:56:57.003Z,23.06
2022-08-24T02:59:29.072Z,23.09
2022-08-24T03:02:01.333Z,23.14
2022-08-24T03:04:34.515Z,23.18
2022-08-24T03:07:07.800Z,23.22
2022-08-24T03:09:39.880Z,23.25
2022-08-24T03:12:12.298Z,23.29
2022-08-24T03:14:45.264Z,23.31
2022-08-24T03:17:19.338Z,23.36
2022-08-24T03:19:51.465Z,23.39
2022-08-24T03:22:23.838Z,23.43
2022-08-24T03:24:56.260Z,23.47
2022-08-24T03:27:28.476Z,23.51
2022-08-24T03:30:01.301Z,23.53
2022-08-24T03:32:33.909Z,23.56
2022-08-24T03:35:06.698Z,23.58
2022-08-24T03:37:40.131Z,23.64
2022-08-24T03:40:22.774Z,23.72
2022-08-24T03:42:48.045Z,23.80
2022-08-24T03:45:23.269Z,23.86
2022-08-24T03:47:56.063Z,24.03
2022-08-24T03:50:28.545Z,23.99
2022-08-24T03:53:00.870Z,24.10
2022-08-24T03:55:33.311Z,24.25
2022-08-24T03:58:05.556Z,24.43
2022-08-24T04:00:39.146Z,24.59
2022-08-24T04:05:40.356Z,25.05
2022-08-24T04:08:13.897Z,25.05
2022-08-24T04:10:49.098Z,25.17
2022-08-24T04:13:21.486Z,25.29
2022-08-24T04:15:53.873Z,25.39
2022-08-24T04:18:28.760Z,25.50
2022-08-24T04:21:00.358Z,25.60
2022-08-24T04:23:47.237Z,25.72
2022-08-24T04:26:09.625Z,25.82
2022-08-24T04:28:41.780Z,25.92
2022-08-24T04:31:15.600Z,26.00
2022-08-24T04:33:53.883Z,26.09
2022-08-24T04:36:26.784Z,26.16
2022-08-24T04:38:59.487Z,26.28
2022-08-24T04:41:50.473Z,26.39
2022-08-24T04:44:24.409Z,26.52
2022-08-24T04:46:57.831Z,26.62
2022-08-24T04:49:30.787Z,26.72
2022-08-24T04:52:03.238Z,26.84
2022-08-24T04:54:36.063Z,26.91
2022-08-24T04:57:17.873Z,26.99
2022-08-24T04:59:48.594Z,27.04
2022-08-24T05:02:22.153Z,27.13
2022-08-24T05:04:55.384Z,27.22
2022-08-24T05:07:27.876Z,27.29
2022-08-24T05:10:01.255Z,27.38
2022-08-24T05:12:33.676Z,27.43
2022-08-24T05:15:08.161Z,27.49
2022-08-24T05:17:42.334Z,27.58
2022-08-24T05:20:15.183Z,27.78
2022-08-24T05:22:47.680Z,27.73
2022-08-24T05:25:19.897Z,27.72
2022-08-24T05:27:52.319Z,27.65
2022-08-24T05:30:25.427Z,27.62
2022-08-24T05:32:58.479Z,27.60
2022-08-24T05:35:30.711Z,27.64
2022-08-24T05:38:03.594Z,27.69
2022-08-24T05:40:41.705Z,27.77
2022-08-24T05:43:14.981Z,27.86
2022-08-24T05:45:47.816Z,28.06
2022-08-24T05:48:20.534Z,28.00
2022-08-24T05:51:11.733Z,28.07
2022-08-24T05:53:51.721Z,28.16
2022-08-24T05:56:31.758Z,28.23
2022-08-24T05:59:01.781Z,28.28
2022-08-24T06:01:34.387Z,28.65
2022-08-24T06:04:07.286Z,29.39
2022-08-24T06:06:40.866Z,30.24
2022-08-24T06:09:13.963Z,30.84
2022-08-24T06:11:49.149Z,31.33
2022-08-24T06:14:26.816Z,31.62
2022-08-24T06:17:00.638Z,31.69
2022-08-24T06:19:33.530Z,31.89
2022-08-24T06:22:05.657Z,32.38
2022-08-24T06:24:58.554Z,32.80
2022-08-24T06:27:31.243Z,33.15
2022-08-24T06:30:06.404Z,33.36
2022-08-24T06:32:52.224Z,33.36
2022-08-24T06:35:32.165Z,33.57
2022-08-24T06:38:04.637Z,33.77
2022-08-24T06:40:38.095Z,34.16
2022-08-24T06:43:11.354Z,34.25
2022-08-24T06:45:45.676Z,34.22
2022-08-24T06:48:19.046Z,34.51
2022-08-24T06:50:51.134Z,35.29
2022-08-24T06:53:23.543Z,35.34
2022-08-24T06:55:59.139Z,35.89
2022-08-24T06:58:32.600Z,36.25
2022-08-24T07:01:19.682Z,36.75
2022-08-24T07:03:52.509Z,37.20
2022-08-24T07:06:42.504Z,37.86
2022-08-24T07:09:15.162Z,38.58
2022-08-24T07:11:49.263Z,38.89
2022-08-24T07:14:21.794Z,39.12
2022-08-24T07:16:54.670Z,38.68
2022-08-24T07:19:28.105Z,37.60
2022-08-24T07:22:00.912Z,36.45
2022-08-24T07:24:33.644Z,35.33
2022-08-24T07:27:06.726Z,34.43
2022-08-24T07:29:56.283Z,33.73
2022-08-24T07:32:13.829Z,33.11
2022-08-24T07:34:47.341Z,32.66
2022-08-24T07:37:21.238Z,32.34
2022-08-24T07:39:54.649Z,32.10
2022-08-24T07:42:31.336Z,31.90
2022-08-24T07:45:00.823Z,31.70
2022-08-24T07:47:38.787Z,31.59
2022-08-24T07:50:09.730Z,31.42
2022-08-24T07:52:42.827Z,31.30
2022-08-24T07:55:16.099Z,31.26
2022-08-24T07:57:48.704Z,31.23
2022-08-24T08:00:21.923Z,31.22
2022-08-24T08:02:57.005Z,31.22
2022-08-24T08:05:29.579Z,31.21
2022-08-24T08:08:02.078Z,31.24
2022-08-24T08:10:36.734Z,31.23
2022-08-24T08:13:10.465Z,31.17
2022-08-24T08:15:44.378Z,31.18
2022-08-24T08:18:17.649Z,31.21
2022-08-24T08:20:50.184Z,31.27
2022-08-24T08:23:40.838Z,31.27
2022-08-24T08:26:21.830Z,31.27
2022-08-24T08:28:58.533Z,31.30
2022-08-24T08:31:31.589Z,31.36
2022-08-24T08:34:08.317Z,31.41
2022-08-24T08:36:41.985Z,31.46
2022-08-24T08:39:16.311Z,31.47
2022-08-24T08:42:03.761Z,31.53
2022-08-24T08:45:04.692Z,31.51
2022-08-24T08:47:59.870Z,31.53
2022-08-24T08:50:37.725Z,31.54
2022-08-24T08:53:25.388Z,31.60
2022-08-24T08:56:23.981Z,31.64
2022-08-24T08:59:11.567Z,31.66
2022-08-24T09:02:03.332Z,31.64
2022-08-24T09:04:49.247Z,31.62
2022-08-24T09:07:51.641Z,31.62
2022-08-24T09:10:37.075Z,31.60
2022-08-24T09:13:31.935Z,31.59
2022-08-24T09:16:25.727Z,31.57
2022-08-24T09:19:31.876Z,31.59
2022-08-24T09:22:14.975Z,31.63
2022-08-24T09:24:56.631Z,31.64
2022-08-24T09:28:03.877Z,31.69
2022-08-24T09:30:57.786Z,31.79
2022-08-24T09:33:44.928Z,31.78
2022-08-24T09:36:48.680Z,31.79
2022-08-24T09:39:39.153Z,31.78
2022-08-24T09:42:49.922Z,31.78
2022-08-24T09:45:55.491Z,31.77
2022-08-24T09:48:44.921Z,31.80
2022-08-24T09:51:43.675Z,31.94
2022-08-24T09:54:43.137Z,31.90
2022-08-24T09:58:02.458Z,31.88
2022-08-24T10:00:27.044Z,31.91
2022-08-24T10:03:21.845Z,31.94
2022-08-24T10:06:16.865Z,31.91
2022-08-24T10:09:04.383Z,31.91
2022-08-24T10:11:54.718Z,31.92
2022-08-24T10:15:01.423Z,31.98
2022-08-24T10:17:39.713Z,31.94
2022-08-24T10:20:26.659Z,31.99
2022-08-24T10:23:20.951Z,32.03
2022-08-24T10:26:03.400Z,32.04
2022-08-24T10:29:05.670Z,32.02
2022-08-24T10:32:02.029Z,32.01
2022-08-24T10:34:43.858Z,32.05
2022-08-24T10:37:35.445Z,32.07
2022-08-24T10:40:15.505Z,32.10
2022-08-24T10:43:18.382Z,32.11
2022-08-24T10:46:04.078Z,32.08
2022-08-24T10:48:51.049Z,32.08
2022-08-24T10:51:37.480Z,32.08
2022-08-24T10:54:14.506Z,32.04
2022-08-24T10:57:12.021Z,32.08
2022-08-24T10:59:45.336Z,32.10
2022-08-24T11:02:37.600Z,32.06
2022-08-24T11:05:12.959Z,32.06
2022-08-24T11:08:05.405Z,32.09
2022-08-24T11:10:39.950Z,32.10
2022-08-24T11:13:24.069Z,32.05
2022-08-24T11:16:00.055Z,32.08
2022-08-24T11:18:54.556Z,32.14
2022-08-24T11:21:48.707Z,32.14
2022-08-24T11:24:33.244Z,32.20
2022-08-24T11:27:08.357Z,32.24
2022-08-24T11:29:56.011Z,32.24
2022-08-24T11:32:46.450Z,32.27
2022-08-24T11:35:21.711Z,32.34
2022-08-24T11:37:56.596Z,32.40
2022-08-24T11:40:32.025Z,32.54
2022-08-24T11:43:23.352Z,32.57
2022-08-24T11:46:11.564Z,32.67
2022-08-24T11:48:52.553Z,32.69
2022-08-24T11:51:30.674Z,32.66
2022-08-24T11:54:16.603Z,32.71
2022-08-24T11:57:12.593Z,32.67
2022-08-24T11:59:59.411Z,32.72
2022-08-24T12:02:57.507Z,32.76
2022-08-24T12:05:44.548Z,32.83
2022-08-24T12:08:28.505Z,33.01
2022-08-24T12:11:26.424Z,33.19
2022-08-24T12:14:07.553Z,33.75
2022-08-24T12:16:58.978Z,34.65
2022-08-24T12:19:34.224Z,36.03
2022-08-24T12:22:09.553Z,37.77
2022-08-24T12:24:50.691Z,39.17
2022-08-24T12:27:26.325Z,40.69
2022-08-24T12:30:05.493Z,42.18
2022-08-24T12:32:46.499Z,43.54
2022-08-24T12:35:42.724Z,44.00
2022-08-24T12:38:29.747Z,44.52
2022-08-24T12:41:18.955Z,44.49
2022-08-24T12:43:44.445Z,44.53
2022-08-24T12:46:18.715Z,44.26
2022-08-24T12:48:59.468Z,44.38
2022-08-24T12:51:49.632Z,44.56
2022-08-24T12:54:42.722Z,44.83
2022-08-24T12:57:25.452Z,44.82
2022-08-24T13:00:07.198Z,44.64
2022-08-24T13:02:45.131Z,44.04
2022-08-24T13:05:20.951Z,43.83
2022-08-24T13:07:56.289Z,43.26
2022-08-24T13:10:32.114Z,42.43
2022-08-24T13:13:10.410Z,41.50
2022-08-24T13:15:57.473Z,40.79
2022-08-24T13:18:50.781Z,40.82
2022-08-24T13:21:41.238Z,41.51
2022-08-24T13:24:34.773Z,42.95
2022-08-24T13:27:18.648Z,44.95
2022-08-24T13:29:57.004Z,46.80
2022-08-24T13:32:35.334Z,48.36
2022-08-24T13:35:38.980Z,49.10
2022-08-24T13:38:31.641Z,49.58
2022-08-24T13:41:41.287Z,49.88
2022-08-24T13:44:25.236Z,50.15
2022-08-24T13:47:06.662Z,50.85
2022-08-24T13:50:01.609Z,51.30
2022-08-24T13:53:00.744Z,51.64
2022-08-24T13:55:45.120Z,51.57
2022-08-24T13:58:35.161Z,51.29
2022-08-24T14:01:27.112Z,50.46
2022-08-24T14:04:10.954Z,50.34
2022-08-24T14:06:57.857Z,50.60
2022-08-24T14:10:04.756Z,50.56
2022-08-24T14:12:51.632Z,50.90
2022-08-24T14:15:43.444Z,51.51
2022-08-24T14:18:18.773Z,51.87
2022-08-24T14:21:05.732Z,52.09
2022-08-24T14:23:52.683Z,51.91
2022-08-24T14:26:41.199Z,51.71
2022-08-24T14:29:22.905Z,51.61
2022-08-24T14:32:11.980Z,51.72
2022-08-24T14:34:53.655Z,51.73
2022-08-24T14:37:28.983Z,51.93
2022-08-24T14:40:28.038Z,51.82
2022-08-24T14:43:06.227Z,51.58
2022-08-24T14:46:16.055Z,51.49
2022-08-24T14:49:09.071Z,51.39
2022-08-24T14:52:15.423Z,51.12
2022-08-24T14:55:08.654Z,49.21
2022-08-24T14:58:02.089Z,46.56
2022-08-24T15:00:56.740Z,44.22
2022-08-24T15:03:43.538Z,41.95
2022-08-24T15:06:30.570Z,40.19
2022-08-24T15:09:11.919Z,38.88
2022-08-24T15:11:44.598Z,37.88
2022-08-24T15:14:37.099Z,37.04
2022-08-24T15:17:11.891Z,36.35
2022-08-24T15:19:49.673Z,35.77
2022-08-24T15:22:27.697Z,35.24
2022-08-24T15:25:06.049Z,34.85
2022-08-24T15:27:56.248Z,34.49
2022-08-24T15:30:34.962Z,34.15
2022-08-24T15:33:19.115Z,33.81
2022-08-24T15:35:53.329Z,33.57
2022-08-24T15:38:35.494Z,33.29
2022-08-24T15:41:32.131Z,33.03
2022-08-24T15:44:10.501Z,32.79
2022-08-24T15:46:49.203Z,32.53
2022-08-24T15:49:24.170Z,32.33
2022-08-24T15:52:00.328Z,32.20
2022-08-24T15:54:44.954Z,32.01
2022-08-24T15:57:29.179Z,31.88
2022-08-24T16:00:17.574Z,31.74
2022-08-24T16:02:50.590Z,31.66
2022-08-24T16:05:25.710Z,31.60
2022-08-24T16:08:06.807Z,31.46
2022-08-24T16:10:48.159Z,31.36
2022-08-24T16:13:29.495Z,31.28
2022-08-24T16:16:11.052Z,31.16
2022-08-24T16:19:08.342Z,31.06
2022-08-24T16:21:39.966Z,30.99
2022-08-24T16:24:15.555Z,30.85
2022-08-24T16:26:51.939Z,30.72
2022-08-24T16:29:39.507Z,30.60
2022-08-24T16:32:22.992Z,30.44
2022-08-24T16:35:06.399Z,30.37
2022-08-24T16:37:39.442Z,30.29
2022-08-24T16:40:12.155Z,30.21
2022-08-24T16:42:44.491Z,30.09
2022-08-24T16:45:20.514Z,30.01
2022-08-24T16:47:52.698Z,29.98
2022-08-24T16:50:27.414Z,29.93
2022-08-24T16:53:00.235Z,29.85
2022-08-24T16:55:33.675Z,29.87
2022-08-24T16:58:07.887Z,29.80
2022-08-24T17:00:40.104Z,29.75
2022-08-24T17:03:15.247Z,29.67
2022-08-24T17:05:47.642Z,29.58
2022-08-24T17:08:20.288Z,29.53
2022-08-24T17:10:53.160Z,29.46
2022-08-24T17:13:48.232Z,29.38
2022-08-24T17:16:00.588Z,29.32
2022-08-24T17:18:33.499Z,29.33
2022-08-24T17:21:06.329Z,29.28
2022-08-24T17:23:39.757Z,29.23
2022-08-24T17:26:20.705Z,29.20
2022-08-24T17:28:54.690Z,29.12
2022-08-24T17:31:29.262Z,29.08
2022-08-24T17:34:02.245Z,29.03
2022-08-24T17:36:35.172Z,28.96
2022-08-24T17:39:08.364Z,28.95
2022-08-24T17:41:40.460Z,28.89
2022-08-24T17:44:16.928Z,28.88
2022-08-24T17:46:51.658Z,28.83
2022-08-24T17:49:25.003Z,28.85
2022-08-24T17:51:59.043Z,28.82
2022-08-24T17:54:31.218Z,28.75
2022-08-24T17:57:03.570Z,28.73
2022-08-24T17:59:36.898Z,28.70
2022-08-24T18:02:14.594Z,28.68
2022-08-24T18:04:46.866Z,28.64
2022-08-24T18:07:42.212Z,28.59
2022-08-24T18:10:01.362Z,28.49
2022-08-24T18:12:33.755Z,28.44
2022-08-24T18:15:07.413Z,28.34
2022-08-24T18:17:44.129Z,28.26
2022-08-24T18:20:18.508Z,28.10
2022-08-24T18:22:50.704Z,27.99
2022-08-24T18:25:24.115Z,27.98
2022-08-24T18:27:58.831Z,27.73
2022-08-24T18:30:33.513Z,27.63
2022-08-24T18:33:06.413Z,27.59
2022-08-24T18:35:38.705Z,27.53
2022-08-24T18:38:11.571Z,27.43
2022-08-24T18:40:52.799Z,27.35
2022-08-24T18:43:19.932Z,27.23
2022-08-24T18:45:53.387Z,27.17
2022-08-24T18:48:25.662Z,27.09
2022-08-24T18:50:59.146Z,27.02
2022-08-24T18:53:33.199Z,26.95
2022-08-24T18:56:12.394Z,26.88
2022-08-24T18:58:43.282Z,26.81
2022-08-24T19:01:15.988Z,26.76
2022-08-24T19:03:48.383Z,26.73
2022-08-24T19:06:21.568Z,26.70
2022-08-24T19:08:53.839Z,26.62
2022-08-24T19:11:26.104Z,26.59
2022-08-24T19:13:58.394Z,26.52
2022-08-24T19:16:32.735Z,26.51
2022-08-24T19:19:06.168Z,26.44
2022-08-24T19:21:40.424Z,26.45
2022-08-24T19:24:14.511Z,26.49
2022-08-24T19:26:46.546Z,26.52
2022-08-24T19:29:38.879Z,26.52
2022-08-24T19:31:55.144Z,26.52
2022-08-24T19:34:27.325Z,26.47
2022-08-24T19:37:01.119Z,26.42
2022-08-24T19:39:33.432Z,26.42
2022-08-24T19:42:06.259Z,26.43
2022-08-24T19:44:57.855Z,26.45
2022-08-24T19:47:30.192Z,26.41
2022-08-24T19:50:04.096Z,26.40
2022-08-24T19:52:38.143Z,26.45
2022-08-24T19:55:11.560Z,26.44
2022-08-24T19:57:50.628Z,26.44
2022-08-24T20:00:28.912Z,26.41
2022-08-24T20:03:03.411Z,26.35
2022-08-24T20:05:35.972Z,26.29
2022-08-24T20:08:08.526Z,26.33
2022-08-24T20:10:41.120Z,26.14
2022-08-24T20:13:13.653Z,26.11
2022-08-24T20:15:46.325Z,26.07
2022-08-24T20:18:18.725Z,26.01
2022-08-24T20:20:50.823Z,25.95
2022-08-24T20:23:23.808Z,25.88
2022-08-24T20:25:59.514Z,25.84
2022-08-24T20:28:38.113Z,25.80
2022-08-24T20:31:09.662Z,25.77
2022-08-24T20:33:41.678Z,25.73
2022-08-24T20:36:32.287Z,25.71
2022-08-24T20:39:06.679Z,25.69
2022-08-24T20:41:39.863Z,25.66
2022-08-24T20:44:12.054Z,25.63
2022-08-24T20:46:46.573Z,25.60
2022-08-24T20:49:19.775Z,25.56
2022-08-24T20:51:51.779Z,25.54
2022-08-24T20:54:24.124Z,25.51
2022-08-24T20:56:56.526Z,25.48
2022-08-24T20:59:28.698Z,25.45
2022-08-24T21:02:01.425Z,25.41
2022-08-24T21:04:33.622Z,25.39
2022-08-24T21:07:06.003Z,25.37
2022-08-24T21:09:38.084Z,25.28
2022-08-24T21:12:16.799Z,25.23
2022-08-24T21:14:48.869Z,25.15
2022-08-24T21:17:24.383Z,25.05
2022-08-24T21:19:56.432Z,25.01
2022-08-24T21:22:28.544Z,24.96
2022-08-24T21:25:00.700Z,24.93
2022-08-24T21:27:36.083Z,24.92
2022-08-24T21:30:11.022Z,24.94
2022-08-24T21:33:00.754Z,24.91
2022-08-24T21:35:33.668Z,24.89
2022-08-24T21:38:07.797Z,24.93
2022-08-24T21:40:40.169Z,24.88
2022-08-24T21:43:17.825Z,24.89
2022-08-24T21:45:46.341Z,24.89
2022-08-24T21:48:19.358Z,24.83
2022-08-24T21:50:51.865Z,24.79
2022-08-24T21:53:23.878Z,24.75
2022-08-24T21:55:57.819Z,24.72
2022-08-24T21:58:29.827Z,24.65
2022-08-24T22:01:01.886Z,24.58
2022-08-24T22:03:39.835Z,24.54
2022-08-24T22:06:08.617Z,24.50
2022-08-24T22:08:42.733Z,24.49
2022-08-24T22:11:17.191Z,24.41
2022-08-24T22:13:49.467Z,24.42
2022-08-24T22:16:22.377Z,24.43
2022-08-24T22:18:55.092Z,24.40
2022-08-24T22:21:30.495Z,24.35
2022-08-24T22:24:02.738Z,24.29
2022-08-24T22:26:38.289Z,24.30
2022-08-24T22:29:11.485Z,24.34
2022-08-24T22:31:45.352Z,24.35
2022-08-24T22:34:20.948Z,24.37
2022-08-24T22:36:54.252Z,24.43
2022-08-24T22:39:26.768Z,24.50
2022-08-24T22:41:59.160Z,24.56
2022-08-24T22:44:31.241Z,24.62
2022-08-24T22:47:12.972Z,24.65
2022-08-24T22:49:43.901Z,24.61
2022-08-24T22:52:16.813Z,24.52
2022-08-24T22:54:48.814Z,24.45
2022-08-24T22:57:20.845Z,24.40
2022-08-24T22:59:52.945Z,24.33
2022-08-24T23:02:25.222Z,24.23
2022-08-24T23:04:57.438Z,24.21
2022-08-24T23:07:29.651Z,24.16
2022-08-24T23:10:01.894Z,24.10
2022-08-24T23:12:34.066Z,24.04
2022-08-24T23:15:06.568Z,23.99
2022-08-24T23:17:38.738Z,23.89
2022-08-24T23:20:11.468Z,23.84
2022-08-24T23:22:45.008Z,23.78
2022-08-24T23:25:17.076Z,23.78
2022-08-24T23:27:50.191Z,23.76
2022-08-24T23:30:22.707Z,23.76
2022-08-24T23:32:54.938Z,23.75
2022-08-24T23:35:27.092Z,23.77
2022-08-24T23:37:59.257Z,23.85
2022-08-24T23:40:31.484Z,23.86
2022-08-24T23:43:04.143Z,23.88
2022-08-24T23:45:38.400Z,23.90
2022-08-24T23:48:10.557Z,23.87
2022-08-24T23:50:46.829Z,23.78
2022-08-24T23:53:20.232Z,23.80
2022-08-24T23:55:53.683Z,23.79
2022-08-24T23:58:25.971Z,23.73
